sensor_id;sensor_type;location;lat;lon;timestamp;temperature;humidity
975;DHT22;6115;49.296;10.602;2022-11-09T00:02:33;10.10;64.30
975;DHT22;6115;49.296;10.602;2022-11-09T00:07:34;10.10;64.60
975;DHT22;6115;49.296;10.602;2022-11-09T00:12:34;10.00;64.70
975;DHT22;6115;49.296;10.602;2022-11-09T00:17:35;10.00;65.00
975;DHT22;6115;49.296;10.602;2022-11-09T00:22:35;9.90;66.20
975;DHT22;6115;49.296;10.602;2022-11-09T00:27:36;9.80;67.30
975;DHT22;6115;49.296;10.602;2022-11-09T00:32:36;9.80;66.60
975;DHT22;6115;49.296;10.602;2022-11-09T00:37:37;9.70;66.90
975;DHT22;6115;49.296;10.602;2022-11-09T00:42:37;9.60;67.10
975;DHT22;6115;49.296;10.602;2022-11-09T00:47:38;9.40;68.20
975;DHT22;6115;49.296;10.602;2022-11-09T00:52:38;9.40;68.50
975;DHT22;6115;49.296;10.602;2022-11-09T00:57:39;9.50;68.90
975;DHT22;6115;49.296;10.602;2022-11-09T01:02:39;9.50;69.10
975;DHT22;6115;49.296;10.602;2022-11-09T01:07:40;9.60;68.50
975;DHT22;6115;49.296;10.602;2022-11-09T01:12:41;9.80;68.10
975;DHT22;6115;49.296;10.602;2022-11-09T01:17:41;10.00;66.30
975;DHT22;6115;49.296;10.602;2022-11-09T01:22:42;9.90;67.80
975;DHT22;6115;49.296;10.602;2022-11-09T01:27:42;9.90;68.00
975;DHT22;6115;49.296;10.602;2022-11-09T01:32:43;9.80;68.20
975;DHT22;6115;49.296;10.602;2022-11-09T01:37:44;9.90;68.30
975;DHT22;6115;49.296;10.602;2022-11-09T01:42:44;9.90;67.80
975;DHT22;6115;49.296;10.602;2022-11-09T01:47:47;10.00;67.10
975;DHT22;6115;49.296;10.602;2022-11-09T01:52:49;9.90;68.30
975;DHT22;6115;49.296;10.602;2022-11-09T01:58:08;9.90;68.60
975;DHT22;6115;49.296;10.602;2022-11-09T02:03:20;9.80;68.60
975;DHT22;6115;49.296;10.602;2022-11-09T02:08:24;9.80;68.30
975;DHT22;6115;49.296;10.602;2022-11-09T02:13:26;9.90;67.30
975;DHT22;6115;49.296;10.602;2022-11-09T02:18:30;10.00;66.00
975;DHT22;6115;49.296;10.602;2022-11-09T02:23:30;10.10;65.80
975;DHT22;6115;49.296;10.602;2022-11-09T02:28:31;10.20;65.30
975;DHT22;6115;49.296;10.602;2022-11-09T02:33:54;10.30;64.50
975;DHT22;6115;49.296;10.602;2022-11-09T02:38:55;10.30;64.40
975;DHT22;6115;49.296;10.602;2022-11-09T02:43:57;10.40;64.00
975;DHT22;6115;49.296;10.602;2022-11-09T02:48:59;10.50;63.80
975;DHT22;6115;49.296;10.602;2022-11-09T02:54:00;10.50;63.70
975;DHT22;6115;49.296;10.602;2022-11-09T02:59:01;10.60;62.80
975;DHT22;6115;49.296;10.602;2022-11-09T03:04:02;10.60;63.40
975;DHT22;6115;49.296;10.602;2022-11-09T03:09:08;10.50;63.20
975;DHT22;6115;49.296;10.602;2022-11-09T03:14:09;10.60;63.30
975;DHT22;6115;49.296;10.602;2022-11-09T03:19:10;10.60;63.10
975;DHT22;6115;49.296;10.602;2022-11-09T03:24:10;10.60;63.10
975;DHT22;6115;49.296;10.602;2022-11-09T03:29:11;10.60;63.00
975;DHT22;6115;49.296;10.602;2022-11-09T03:34:11;10.60;62.90
975;DHT22;6115;49.296;10.602;2022-11-09T03:39:12;10.60;62.90
975;DHT22;6115;49.296;10.602;2022-11-09T03:44:12;10.70;62.90
975;DHT22;6115;49.296;10.602;2022-11-09T03:49:13;10.50;63.00
975;DHT22;6115;49.296;10.602;2022-11-09T03:54:14;10.60;63.40
975;DHT22;6115;49.296;10.602;2022-11-09T03:59:14;10.70;63.40
975;DHT22;6115;49.296;10.602;2022-11-09T04:04:15;10.60;62.30
975;DHT22;6115;49.296;10.602;2022-11-09T04:09:15;10.60;62.50
975;DHT22;6115;49.296;10.602;2022-11-09T04:14:16;10.70;63.00
975;DHT22;6115;49.296;10.602;2022-11-09T04:19:16;10.80;63.20
975;DHT22;6115;49.296;10.602;2022-11-09T04:24:17;10.60;63.80
975;DHT22;6115;49.296;10.602;2022-11-09T04:29:18;10.50;64.70
975;DHT22;6115;49.296;10.602;2022-11-09T04:34:18;10.50;64.70
975;DHT22;6115;49.296;10.602;2022-11-09T04:39:19;10.60;64.80
975;DHT22;6115;49.296;10.602;2022-11-09T04:44:19;10.60;64.80
975;DHT22;6115;49.296;10.602;2022-11-09T04:49:20;10.60;65.20
975;DHT22;6115;49.296;10.602;2022-11-09T04:54:20;10.60;65.40
975;DHT22;6115;49.296;10.602;2022-11-09T04:59:21;10.60;65.70
975;DHT22;6115;49.296;10.602;2022-11-09T05:04:22;10.70;66.00
975;DHT22;6115;49.296;10.602;2022-11-09T05:09:22;10.80;65.70
975;DHT22;6115;49.296;10.602;2022-11-09T05:14:23;10.80;65.80
975;DHT22;6115;49.296;10.602;2022-11-09T05:19:23;10.80;65.50
975;DHT22;6115;49.296;10.602;2022-11-09T05:24:24;10.70;66.70
975;DHT22;6115;49.296;10.602;2022-11-09T05:29:24;10.60;66.50
975;DHT22;6115;49.296;10.602;2022-11-09T05:34:25;10.40;67.60
975;DHT22;6115;49.296;10.602;2022-11-09T05:39:25;10.30;68.70
975;DHT22;6115;49.296;10.602;2022-11-09T05:44:26;10.20;69.90
975;DHT22;6115;49.296;10.602;2022-11-09T05:49:26;10.10;71.60
975;DHT22;6115;49.296;10.602;2022-11-09T05:54:27;9.90;74.30
975;DHT22;6115;49.296;10.602;2022-11-09T05:59:27;9.80;75.20
975;DHT22;6115;49.296;10.602;2022-11-09T06:04:28;9.80;76.20
975;DHT22;6115;49.296;10.602;2022-11-09T06:09:28;9.70;76.80
975;DHT22;6115;49.296;10.602;2022-11-09T06:14:29;9.80;77.10
975;DHT22;6115;49.296;10.602;2022-11-09T06:19:29;9.80;77.30
975;DHT22;6115;49.296;10.602;2022-11-09T06:24:30;9.80;77.60
975;DHT22;6115;49.296;10.602;2022-11-09T06:29:31;9.80;77.90
975;DHT22;6115;49.296;10.602;2022-11-09T06:34:31;9.70;79.00
975;DHT22;6115;49.296;10.602;2022-11-09T06:39:32;9.70;79.60
975;DHT22;6115;49.296;10.602;2022-11-09T06:44:32;9.80;79.60
975;DHT22;6115;49.296;10.602;2022-11-09T06:49:33;9.80;79.60
975;DHT22;6115;49.296;10.602;2022-11-09T06:54:33;9.80;79.60
975;DHT22;6115;49.296;10.602;2022-11-09T06:59:34;9.80;79.60
975;DHT22;6115;49.296;10.602;2022-11-09T07:04:35;9.70;79.60
975;DHT22;6115;49.296;10.602;2022-11-09T07:09:35;9.70;80.40
975;DHT22;6115;49.296;10.602;2022-11-09T07:14:36;9.70;81.00
975;DHT22;6115;49.296;10.602;2022-11-09T07:19:36;9.70;81.50
975;DHT22;6115;49.296;10.602;2022-11-09T07:24:37;9.70;82.00
975;DHT22;6115;49.296;10.602;2022-11-09T07:29:37;9.80;82.10
975;DHT22;6115;49.296;10.602;2022-11-09T07:34:38;9.90;82.40
975;DHT22;6115;49.296;10.602;2022-11-09T07:39:38;10.00;81.70
975;DHT22;6115;49.296;10.602;2022-11-09T07:44:39;10.20;81.50
975;DHT22;6115;49.296;10.602;2022-11-09T07:49:39;10.20;81.40
975;DHT22;6115;49.296;10.602;2022-11-09T07:54:40;10.30;80.80
975;DHT22;6115;49.296;10.602;2022-11-09T07:59:40;10.30;80.50
975;DHT22;6115;49.296;10.602;2022-11-09T08:04:41;10.20;80.90
975;DHT22;6115;49.296;10.602;2022-11-09T08:09:42;10.20;81.30
975;DHT22;6115;49.296;10.602;2022-11-09T08:14:42;10.30;81.60
975;DHT22;6115;49.296;10.602;2022-11-09T08:19:43;10.30;81.80
975;DHT22;6115;49.296;10.602;2022-11-09T08:24:43;10.30;82.30
975;DHT22;6115;49.296;10.602;2022-11-09T08:29:44;10.40;82.60
975;DHT22;6115;49.296;10.602;2022-11-09T08:34:47;10.40;82.40
975;DHT22;6115;49.296;10.602;2022-11-09T08:39:48;10.40;82.60
975;DHT22;6115;49.296;10.602;2022-11-09T08:44:49;10.50;82.60
975;DHT22;6115;49.296;10.602;2022-11-09T08:49:49;10.40;82.80
975;DHT22;6115;49.296;10.602;2022-11-09T08:54:50;10.50;82.80
975;DHT22;6115;49.296;10.602;2022-11-09T08:59:50;10.50;82.60
975;DHT22;6115;49.296;10.602;2022-11-09T09:04:51;10.50;83.20
975;DHT22;6115;49.296;10.602;2022-11-09T09:09:52;10.40;82.80
975;DHT22;6115;49.296;10.602;2022-11-09T09:14:52;10.50;83.20
975;DHT22;6115;49.296;10.602;2022-11-09T09:19:53;10.50;83.40
975;DHT22;6115;49.296;10.602;2022-11-09T09:24:54;10.70;84.20
975;DHT22;6115;49.296;10.602;2022-11-09T09:29:54;11.00;84.10
975;DHT22;6115;49.296;10.602;2022-11-09T09:34:55;11.00;83.20
975;DHT22;6115;49.296;10.602;2022-11-09T09:39:56;11.10;83.30
975;DHT22;6115;49.296;10.602;2022-11-09T09:45:11;11.00;83.50
975;DHT22;6115;49.296;10.602;2022-11-09T09:50:20;10.90;84.00
975;DHT22;6115;49.296;10.602;2022-11-09T09:55:37;11.00;84.50
975;DHT22;6115;49.296;10.602;2022-11-09T10:00:39;11.00;84.50
975;DHT22;6115;49.296;10.602;2022-11-09T10:17:27;12.00;84.40
975;DHT22;6115;49.296;10.602;2022-11-09T10:27:59;12.50;83.50
975;DHT22;6115;49.296;10.602;2022-11-09T10:38:21;12.80;81.60
975;DHT22;6115;49.296;10.602;2022-11-09T10:43:22;12.70;81.50
975;DHT22;6115;49.296;10.602;2022-11-09T10:48:35;12.50;81.20
975;DHT22;6115;49.296;10.602;2022-11-09T10:53:36;12.50;81.60
975;DHT22;6115;49.296;10.602;2022-11-09T10:58:39;12.40;81.20
975;DHT22;6115;49.296;10.602;2022-11-09T11:03:41;12.50;81.80
975;DHT22;6115;49.296;10.602;2022-11-09T11:08:47;12.80;81.60
975;DHT22;6115;49.296;10.602;2022-11-09T11:13:49;12.90;81.20
975;DHT22;6115;49.296;10.602;2022-11-09T11:18:50;13.10;80.30
975;DHT22;6115;49.296;10.602;2022-11-09T11:24:12;13.30;80.20
975;DHT22;6115;49.296;10.602;2022-11-09T11:34:36;14.10;79.40
975;DHT22;6115;49.296;10.602;2022-11-09T11:39:43;14.10;77.50
975;DHT22;6115;49.296;10.602;2022-11-09T11:45:04;14.10;76.20
975;DHT22;6115;49.296;10.602;2022-11-09T11:50:30;14.20;76.40
975;DHT22;6115;49.296;10.602;2022-11-09T11:56:03;14.40;77.00
975;DHT22;6115;49.296;10.602;2022-11-09T12:06:46;15.00;74.10
975;DHT22;6115;49.296;10.602;2022-11-09T12:17:18;15.00;72.10
975;DHT22;6115;49.296;10.602;2022-11-09T12:22:37;14.90;73.00
975;DHT22;6115;49.296;10.602;2022-11-09T12:33:01;15.00;71.70
975;DHT22;6115;49.296;10.602;2022-11-09T12:38:37;15.00;70.40
975;DHT22;6115;49.296;10.602;2022-11-09T12:48:54;15.30;70.30
975;DHT22;6115;49.296;10.602;2022-11-09T12:53:56;15.30;69.40
975;DHT22;6115;49.296;10.602;2022-11-09T13:04:26;15.40;69.10
975;DHT22;6115;49.296;10.602;2022-11-09T13:09:27;15.40;68.60
975;DHT22;6115;49.296;10.602;2022-11-09T13:14:36;15.20;68.40
975;DHT22;6115;49.296;10.602;2022-11-09T13:29:54;15.40;68.80
975;DHT22;6115;49.296;10.602;2022-11-09T13:34:56;15.30;67.60
975;DHT22;6115;49.296;10.602;2022-11-09T13:39:57;15.30;67.50
975;DHT22;6115;49.296;10.602;2022-11-09T13:50:24;15.20;67.40
975;DHT22;6115;49.296;10.602;2022-11-09T14:00:29;15.30;69.40
975;DHT22;6115;49.296;10.602;2022-11-09T14:05:34;15.20;69.80
975;DHT22;6115;49.296;10.602;2022-11-09T14:21:25;14.50;72.90
975;DHT22;6115;49.296;10.602;2022-11-09T14:26:27;14.50;73.60
975;DHT22;6115;49.296;10.602;2022-11-09T14:31:29;14.50;73.60
975;DHT22;6115;49.296;10.602;2022-11-09T14:36:32;14.50;73.60
975;DHT22;6115;49.296;10.602;2022-11-09T14:41:34;14.40;73.30
975;DHT22;6115;49.296;10.602;2022-11-09T14:46:34;14.40;73.50
975;DHT22;6115;49.296;10.602;2022-11-09T14:51:38;14.30;73.40
975;DHT22;6115;49.296;10.602;2022-11-09T14:56:40;14.30;73.10
975;DHT22;6115;49.296;10.602;2022-11-09T15:02:28;14.30;73.40
975;DHT22;6115;49.296;10.602;2022-11-09T15:07:25;14.30;73.40
975;DHT22;6115;49.296;10.602;2022-11-09T15:12:27;14.30;73.40
975;DHT22;6115;49.296;10.602;2022-11-09T15:17:31;14.30;73.40
975;DHT22;6115;49.296;10.602;2022-11-09T15:22:54;14.30;73.40
975;DHT22;6115;49.296;10.602;2022-11-09T15:38:43;14.00;74.00
975;DHT22;6115;49.296;10.602;2022-11-09T15:43:46;14.00;74.40
975;DHT22;6115;49.296;10.602;2022-11-09T15:48:47;13.80;74.70
975;DHT22;6115;49.296;10.602;2022-11-09T15:53:47;13.80;75.00
975;DHT22;6115;49.296;10.602;2022-11-09T15:58:49;13.80;75.00
975;DHT22;6115;49.296;10.602;2022-11-09T16:03:51;13.70;75.40
975;DHT22;6115;49.296;10.602;2022-11-09T16:08:52;13.70;75.70
975;DHT22;6115;49.296;10.602;2022-11-09T16:13:52;13.60;76.00
975;DHT22;6115;49.296;10.602;2022-11-09T16:18:54;13.50;76.30
975;DHT22;6115;49.296;10.602;2022-11-09T16:23:55;13.40;77.30
975;DHT22;6115;49.296;10.602;2022-11-09T16:28:56;13.30;77.60
975;DHT22;6115;49.296;10.602;2022-11-09T16:33:57;13.30;78.50
975;DHT22;6115;49.296;10.602;2022-11-09T16:39:03;13.30;78.70
975;DHT22;6115;49.296;10.602;2022-11-09T16:44:04;13.20;79.50
975;DHT22;6115;49.296;10.602;2022-11-09T16:49:05;13.20;78.90
975;DHT22;6115;49.296;10.602;2022-11-09T16:54:05;13.20;79.20
975;DHT22;6115;49.296;10.602;2022-11-09T16:59:06;13.20;79.30
975;DHT22;6115;49.296;10.602;2022-11-09T17:04:07;13.10;79.40
975;DHT22;6115;49.296;10.602;2022-11-09T17:09:07;13.10;79.70
975;DHT22;6115;49.296;10.602;2022-11-09T17:14:08;13.10;80.00
975;DHT22;6115;49.296;10.602;2022-11-09T17:19:08;13.10;80.20
975;DHT22;6115;49.296;10.602;2022-11-09T17:24:09;13.00;80.30
975;DHT22;6115;49.296;10.602;2022-11-09T17:29:10;13.00;80.50
975;DHT22;6115;49.296;10.602;2022-11-09T17:34:12;13.00;80.80
975;DHT22;6115;49.296;10.602;2022-11-09T17:39:12;12.90;81.00
975;DHT22;6115;49.296;10.602;2022-11-09T17:44:13;12.90;81.10
975;DHT22;6115;49.296;10.602;2022-11-09T17:49:13;12.90;81.70
975;DHT22;6115;49.296;10.602;2022-11-09T17:54:14;12.90;81.70
975;DHT22;6115;49.296;10.602;2022-11-09T17:59:15;12.80;81.50
975;DHT22;6115;49.296;10.602;2022-11-09T18:04:15;12.80;81.80
975;DHT22;6115;49.296;10.602;2022-11-09T18:09:16;12.70;82.30
975;DHT22;6115;49.296;10.602;2022-11-09T18:14:18;12.70;82.50
975;DHT22;6115;49.296;10.602;2022-11-09T18:19:18;12.80;82.80
975;DHT22;6115;49.296;10.602;2022-11-09T18:24:19;12.70;83.00
975;DHT22;6115;49.296;10.602;2022-11-09T18:29:20;12.70;83.50
975;DHT22;6115;49.296;10.602;2022-11-09T18:34:20;12.70;83.60
975;DHT22;6115;49.296;10.602;2022-11-09T18:39:21;12.70;83.80
975;DHT22;6115;49.296;10.602;2022-11-09T18:44:21;12.60;84.10
975;DHT22;6115;49.296;10.602;2022-11-09T18:49:22;12.60;84.20
975;DHT22;6115;49.296;10.602;2022-11-09T18:54:23;12.60;84.20
975;DHT22;6115;49.296;10.602;2022-11-09T18:59:24;12.60;84.50
975;DHT22;6115;49.296;10.602;2022-11-09T19:04:25;12.60;84.50
975;DHT22;6115;49.296;10.602;2022-11-09T19:09:26;12.50;84.60
975;DHT22;6115;49.296;10.602;2022-11-09T19:14:30;12.50;84.80
975;DHT22;6115;49.296;10.602;2022-11-09T19:19:33;12.50;84.90
975;DHT22;6115;49.296;10.602;2022-11-09T19:24:33;12.50;85.00
975;DHT22;6115;49.296;10.602;2022-11-09T19:29:34;12.50;84.90
975;DHT22;6115;49.296;10.602;2022-11-09T19:34:34;12.50;84.90
975;DHT22;6115;49.296;10.602;2022-11-09T19:39:35;12.50;84.90
975;DHT22;6115;49.296;10.602;2022-11-09T19:44:35;12.40;85.00
975;DHT22;6115;49.296;10.602;2022-11-09T19:49:36;12.40;85.10
975;DHT22;6115;49.296;10.602;2022-11-09T19:54:39;12.40;85.10
975;DHT22;6115;49.296;10.602;2022-11-09T19:59:42;12.40;85.10
975;DHT22;6115;49.296;10.602;2022-11-09T20:04:42;12.30;84.90
975;DHT22;6115;49.296;10.602;2022-11-09T20:09:43;12.30;84.90
975;DHT22;6115;49.296;10.602;2022-11-09T20:14:44;12.30;84.90
975;DHT22;6115;49.296;10.602;2022-11-09T20:19:44;12.30;84.80
975;DHT22;6115;49.296;10.602;2022-11-09T20:24:45;12.20;84.60
975;DHT22;6115;49.296;10.602;2022-11-09T20:29:45;12.20;84.70
975;DHT22;6115;49.296;10.602;2022-11-09T20:34:46;12.20;84.60
975;DHT22;6115;49.296;10.602;2022-11-09T20:39:48;12.20;84.40
975;DHT22;6115;49.296;10.602;2022-11-09T20:44:49;12.10;84.30
975;DHT22;6115;49.296;10.602;2022-11-09T20:49:51;12.00;84.60
975;DHT22;6115;49.296;10.602;2022-11-09T20:54:52;12.00;85.00
975;DHT22;6115;49.296;10.602;2022-11-09T20:59:52;12.00;85.00
975;DHT22;6115;49.296;10.602;2022-11-09T21:04:53;12.00;85.00
975;DHT22;6115;49.296;10.602;2022-11-09T21:09:53;12.00;85.50
975;DHT22;6115;49.296;10.602;2022-11-09T21:14:54;11.90;85.40
975;DHT22;6115;49.296;10.602;2022-11-09T21:19:55;11.60;85.10
975;DHT22;6115;49.296;10.602;2022-11-09T21:24:55;11.40;84.90
975;DHT22;6115;49.296;10.602;2022-11-09T21:30:14;11.40;85.80
975;DHT22;6115;49.296;10.602;2022-11-09T21:35:15;11.40;86.40
975;DHT22;6115;49.296;10.602;2022-11-09T21:40:15;11.40;86.20
975;DHT22;6115;49.296;10.602;2022-11-09T21:45:16;11.30;85.90
975;DHT22;6115;49.296;10.602;2022-11-09T21:50:16;11.10;84.60
975;DHT22;6115;49.296;10.602;2022-11-09T21:55:17;11.00;84.50
975;DHT22;6115;49.296;10.602;2022-11-09T22:00:18;11.00;85.20
975;DHT22;6115;49.296;10.602;2022-11-09T22:05:18;11.00;84.50
975;DHT22;6115;49.296;10.602;2022-11-09T22:10:19;11.00;84.50
975;DHT22;6115;49.296;10.602;2022-11-09T22:15:19;10.90;84.40
975;DHT22;6115;49.296;10.602;2022-11-09T22:20:55;11.00;84.50
975;DHT22;6115;49.296;10.602;2022-11-09T22:25:59;11.10;84.60
975;DHT22;6115;49.296;10.602;2022-11-09T22:31:04;11.20;84.70
975;DHT22;6115;49.296;10.602;2022-11-09T22:36:06;11.20;84.70
975;DHT22;6115;49.296;10.602;2022-11-09T22:41:13;11.10;84.60
975;DHT22;6115;49.296;10.602;2022-11-09T22:46:15;11.10;84.60
975;DHT22;6115;49.296;10.602;2022-11-09T22:51:17;11.10;84.60
975;DHT22;6115;49.296;10.602;2022-11-09T22:56:17;11.10;84.40
975;DHT22;6115;49.296;10.602;2022-11-09T23:01:19;11.10;84.60
975;DHT22;6115;49.296;10.602;2022-11-09T23:06:21;11.10;84.60
975;DHT22;6115;49.296;10.602;2022-11-09T23:11:23;11.00;84.50
975;DHT22;6115;49.296;10.602;2022-11-09T23:16:24;11.00;84.50
975;DHT22;6115;49.296;10.602;2022-11-09T23:21:27;11.00;84.50
975;DHT22;6115;49.296;10.602;2022-11-09T23:26:29;11.00;84.50
975;DHT22;6115;49.296;10.602;2022-11-09T23:31:30;11.00;84.80
975;DHT22;6115;49.296;10.602;2022-11-09T23:36:30;10.90;85.00
975;DHT22;6115;49.296;10.602;2022-11-09T23:41:31;10.90;85.20
975;DHT22;6115;49.296;10.602;2022-11-09T23:46:31;10.80;85.40
975;DHT22;6115;49.296;10.602;2022-11-09T23:51:32;10.80;85.70
975;DHT22;6115;49.296;10.602;2022-11-09T23:56:32;10.90;86.10
